sensor_id;sensor_type;location;lat;lon;timestamp;P1;durP1;ratioP1;P2;durP2;ratioP2
69894;SDS011;57172;52.034;5.090;2024-03-06T00:00:12;41.67;;;22.25;;
69894;SDS011;57172;52.034;5.090;2024-03-06T00:02:39;45.63;;;23.25;;
69894;SDS011;57172;52.034;5.090;2024-03-06T00:05:07;43.70;;;22.17;;
69894;SDS011;57172;52.034;5.090;2024-03-06T00:07:35;38.75;;;21.52;;
69894;SDS011;57172;52.034;5.090;2024-03-06T00:10:02;43.30;;;21.95;;
69894;SDS011;57172;52.034;5.090;2024-03-06T00:12:31;44.47;;;22.92;;
69894;SDS011;57172;52.034;5.090;2024-03-06T00:14:58;44.92;;;23.13;;
69894;SDS011;57172;52.034;5.090;2024-03-06T00:17:25;38.40;;;21.48;;
69894;SDS011;57172;52.034;5.090;2024-03-06T00:19:52;39.15;;;21.40;;
69894;SDS011;57172;52.034;5.090;2024-03-06T00:22:19;39.80;;;22.02;;
69894;SDS011;57172;52.034;5.090;2024-03-06T00:24:49;44.45;;;23.40;;
69894;SDS011;57172;52.034;5.090;2024-03-06T00:27:16;47.63;;;24.70;;
69894;SDS011;57172;52.034;5.090;2024-03-06T00:29:43;44.35;;;23.30;;
69894;SDS011;57172;52.034;5.090;2024-03-06T00:32:11;41.47;;;23.00;;
69894;SDS011;57172;52.034;5.090;2024-03-06T00:34:38;43.60;;;22.30;;
69894;SDS011;57172;52.034;5.090;2024-03-06T00:37:04;39.33;;;21.98;;
69894;SDS011;57172;52.034;5.090;2024-03-06T00:39:31;39.75;;;22.83;;
69894;SDS011;57172;52.034;5.090;2024-03-06T00:41:58;40.40;;;22.08;;
69894;SDS011;57172;52.034;5.090;2024-03-06T00:44:25;41.92;;;22.77;;
69894;SDS011;57172;52.034;5.090;2024-03-06T00:46:52;41.90;;;22.73;;
69894;SDS011;57172;52.034;5.090;2024-03-06T00:49:18;40.47;;;22.33;;
69894;SDS011;57172;52.034;5.090;2024-03-06T00:51:45;44.88;;;23.17;;
69894;SDS011;57172;52.034;5.090;2024-03-06T00:54:15;40.67;;;21.73;;
69894;SDS011;57172;52.034;5.090;2024-03-06T00:56:43;42.88;;;22.85;;
69894;SDS011;57172;52.034;5.090;2024-03-06T00:59:10;39.80;;;22.23;;
69894;SDS011;57172;52.034;5.090;2024-03-06T01:01:37;48.70;;;25.23;;
69894;SDS011;57172;52.034;5.090;2024-03-06T01:04:04;41.45;;;22.83;;
69894;SDS011;57172;52.034;5.090;2024-03-06T01:06:31;43.60;;;23.38;;
69894;SDS011;57172;52.034;5.090;2024-03-06T01:08:58;44.75;;;24.27;;
69894;SDS011;57172;52.034;5.090;2024-03-06T01:11:25;47.78;;;23.77;;
69894;SDS011;57172;52.034;5.090;2024-03-06T01:13:55;45.78;;;24.13;;
69894;SDS011;57172;52.034;5.090;2024-03-06T01:16:22;47.50;;;24.50;;
69894;SDS011;57172;52.034;5.090;2024-03-06T01:18:49;47.10;;;24.80;;
69894;SDS011;57172;52.034;5.090;2024-03-06T01:21:16;48.13;;;25.75;;
69894;SDS011;57172;52.034;5.090;2024-03-06T01:23:43;49.63;;;25.95;;
69894;SDS011;57172;52.034;5.090;2024-03-06T01:26:10;49.58;;;25.58;;
69894;SDS011;57172;52.034;5.090;2024-03-06T01:28:38;48.50;;;25.65;;
69894;SDS011;57172;52.034;5.090;2024-03-06T01:31:05;48.90;;;25.60;;
69894;SDS011;57172;52.034;5.090;2024-03-06T01:33:33;50.22;;;26.20;;
69894;SDS011;57172;52.034;5.090;2024-03-06T01:36:00;46.17;;;24.92;;
69894;SDS011;57172;52.034;5.090;2024-03-06T01:38:27;49.20;;;25.63;;
69894;SDS011;57172;52.034;5.090;2024-03-06T01:40:54;49.70;;;25.52;;
69894;SDS011;57172;52.034;5.090;2024-03-06T01:43:22;45.55;;;24.55;;
69894;SDS011;57172;52.034;5.090;2024-03-06T01:45:50;50.97;;;25.63;;
69894;SDS011;57172;52.034;5.090;2024-03-06T01:48:17;49.92;;;25.48;;
69894;SDS011;57172;52.034;5.090;2024-03-06T01:50:46;47.58;;;25.08;;
69894;SDS011;57172;52.034;5.090;2024-03-06T01:53:14;49.75;;;25.80;;
69894;SDS011;57172;52.034;5.090;2024-03-06T01:55:42;47.67;;;25.45;;
69894;SDS011;57172;52.034;5.090;2024-03-06T01:58:09;46.25;;;25.15;;
69894;SDS011;57172;52.034;5.090;2024-03-06T02:00:37;50.15;;;25.75;;
69894;SDS011;57172;52.034;5.090;2024-03-06T02:03:04;47.55;;;24.58;;
69894;SDS011;57172;52.034;5.090;2024-03-06T02:05:31;44.30;;;23.65;;
69894;SDS011;57172;52.034;5.090;2024-03-06T02:07:59;46.40;;;24.63;;
69894;SDS011;57172;52.034;5.090;2024-03-06T02:10:29;46.80;;;24.38;;
69894;SDS011;57172;52.034;5.090;2024-03-06T02:12:56;45.85;;;24.98;;
69894;SDS011;57172;52.034;5.090;2024-03-06T02:15:24;48.60;;;25.20;;
69894;SDS011;57172;52.034;5.090;2024-03-06T02:17:51;46.30;;;25.13;;
69894;SDS011;57172;52.034;5.090;2024-03-06T02:20:23;47.63;;;23.73;;
69894;SDS011;57172;52.034;5.090;2024-03-06T02:22:51;52.67;;;25.95;;
69894;SDS011;57172;52.034;5.090;2024-03-06T02:25:18;55.97;;;25.90;;
69894;SDS011;57172;52.034;5.090;2024-03-06T02:27:46;54.28;;;25.40;;
69894;SDS011;57172;52.034;5.090;2024-03-06T02:30:14;49.40;;;24.95;;
69894;SDS011;57172;52.034;5.090;2024-03-06T02:32:46;55.53;;;26.38;;
69894;SDS011;57172;52.034;5.090;2024-03-06T02:35:13;47.63;;;24.85;;
69894;SDS011;57172;52.034;5.090;2024-03-06T02:37:42;51.83;;;26.05;;
69894;SDS011;57172;52.034;5.090;2024-03-06T02:40:10;55.30;;;27.00;;
69894;SDS011;57172;52.034;5.090;2024-03-06T02:42:38;62.80;;;28.90;;
69894;SDS011;57172;52.034;5.090;2024-03-06T02:45:08;63.25;;;28.60;;
69894;SDS011;57172;52.034;5.090;2024-03-06T02:47:35;62.58;;;28.92;;
69894;SDS011;57172;52.034;5.090;2024-03-06T02:50:02;58.20;;;28.00;;
69894;SDS011;57172;52.034;5.090;2024-03-06T02:52:29;59.45;;;27.02;;
69894;SDS011;57172;52.034;5.090;2024-03-06T02:54:56;53.22;;;25.95;;
69894;SDS011;57172;52.034;5.090;2024-03-06T02:57:26;54.05;;;26.17;;
69894;SDS011;57172;52.034;5.090;2024-03-06T02:59:57;57.47;;;27.42;;
69894;SDS011;57172;52.034;5.090;2024-03-06T03:02:24;51.75;;;26.27;;
69894;SDS011;57172;52.034;5.090;2024-03-06T03:04:52;52.92;;;25.50;;
69894;SDS011;57172;52.034;5.090;2024-03-06T03:07:19;53.80;;;26.05;;
69894;SDS011;57172;52.034;5.090;2024-03-06T03:09:47;51.25;;;26.25;;
69894;SDS011;57172;52.034;5.090;2024-03-06T03:12:14;50.80;;;24.98;;
69894;SDS011;57172;52.034;5.090;2024-03-06T03:14:41;50.60;;;24.05;;
69894;SDS011;57172;52.034;5.090;2024-03-06T03:17:08;52.13;;;24.77;;
69894;SDS011;57172;52.034;5.090;2024-03-06T03:19:36;51.50;;;25.77;;
69894;SDS011;57172;52.034;5.090;2024-03-06T03:22:06;55.72;;;26.15;;
69894;SDS011;57172;52.034;5.090;2024-03-06T03:24:35;56.90;;;26.52;;
69894;SDS011;57172;52.034;5.090;2024-03-06T03:27:03;50.88;;;25.33;;
69894;SDS011;57172;52.034;5.090;2024-03-06T03:29:30;53.38;;;25.65;;
69894;SDS011;57172;52.034;5.090;2024-03-06T03:31:57;56.70;;;26.17;;
69894;SDS011;57172;52.034;5.090;2024-03-06T03:34:24;51.40;;;25.08;;
69894;SDS011;57172;52.034;5.090;2024-03-06T03:36:50;57.05;;;25.98;;
69894;SDS011;57172;52.034;5.090;2024-03-06T03:39:17;52.22;;;25.73;;
69894;SDS011;57172;52.034;5.090;2024-03-06T03:41:47;57.00;;;26.45;;
69894;SDS011;57172;52.034;5.090;2024-03-06T03:44:15;52.25;;;25.48;;
69894;SDS011;57172;52.034;5.090;2024-03-06T03:46:43;54.10;;;25.73;;
69894;SDS011;57172;52.034;5.090;2024-03-06T03:49:11;55.20;;;26.48;;
69894;SDS011;57172;52.034;5.090;2024-03-06T03:51:38;54.63;;;26.65;;
69894;SDS011;57172;52.034;5.090;2024-03-06T03:54:05;57.22;;;27.00;;
69894;SDS011;57172;52.034;5.090;2024-03-06T03:56:33;59.78;;;27.90;;
69894;SDS011;57172;52.034;5.090;2024-03-06T03:59:00;57.92;;;27.70;;
69894;SDS011;57172;52.034;5.090;2024-03-06T04:01:27;53.83;;;25.55;;
69894;SDS011;57172;52.034;5.090;2024-03-06T04:03:54;56.10;;;26.13;;
69894;SDS011;57172;52.034;5.090;2024-03-06T04:06:21;50.28;;;26.08;;
69894;SDS011;57172;52.034;5.090;2024-03-06T04:08:48;59.17;;;26.92;;
69894;SDS011;57172;52.034;5.090;2024-03-06T04:11:15;61.47;;;28.35;;
69894;SDS011;57172;52.034;5.090;2024-03-06T04:13:42;61.50;;;28.90;;
69894;SDS011;57172;52.034;5.090;2024-03-06T04:16:10;60.85;;;28.08;;
69894;SDS011;57172;52.034;5.090;2024-03-06T04:18:41;60.53;;;28.05;;
69894;SDS011;57172;52.034;5.090;2024-03-06T04:21:08;64.82;;;28.33;;
69894;SDS011;57172;52.034;5.090;2024-03-06T04:23:36;57.28;;;27.15;;
69894;SDS011;57172;52.034;5.090;2024-03-06T04:26:03;55.38;;;27.10;;
69894;SDS011;57172;52.034;5.090;2024-03-06T04:28:30;57.05;;;27.40;;
69894;SDS011;57172;52.034;5.090;2024-03-06T04:30:58;57.83;;;27.88;;
69894;SDS011;57172;52.034;5.090;2024-03-06T04:33:24;60.58;;;28.58;;
69894;SDS011;57172;52.034;5.090;2024-03-06T04:35:51;63.38;;;29.17;;
69894;SDS011;57172;52.034;5.090;2024-03-06T04:38:18;62.10;;;28.65;;
69894;SDS011;57172;52.034;5.090;2024-03-06T04:40:45;60.60;;;28.98;;
69894;SDS011;57172;52.034;5.090;2024-03-06T04:43:12;62.90;;;29.52;;
69894;SDS011;57172;52.034;5.090;2024-03-06T04:45:39;58.47;;;28.20;;
69894;SDS011;57172;52.034;5.090;2024-03-06T04:48:06;63.22;;;28.10;;
69894;SDS011;57172;52.034;5.090;2024-03-06T04:50:34;63.75;;;30.63;;
69894;SDS011;57172;52.034;5.090;2024-03-06T04:53:01;67.18;;;30.02;;
69894;SDS011;57172;52.034;5.090;2024-03-06T04:55:28;64.63;;;29.98;;
69894;SDS011;57172;52.034;5.090;2024-03-06T04:57:56;65.78;;;30.02;;
69894;SDS011;57172;52.034;5.090;2024-03-06T05:00:23;60.25;;;28.17;;
69894;SDS011;57172;52.034;5.090;2024-03-06T05:02:50;62.45;;;28.58;;
69894;SDS011;57172;52.034;5.090;2024-03-06T05:05:34;60.83;;;28.80;;
69894;SDS011;57172;52.034;5.090;2024-03-06T05:08:19;55.67;;;26.90;;
69894;SDS011;57172;52.034;5.090;2024-03-06T05:11:04;59.95;;;28.20;;
69894;SDS011;57172;52.034;5.090;2024-03-06T05:13:48;60.95;;;28.00;;
69894;SDS011;57172;52.034;5.090;2024-03-06T05:16:33;70.72;;;27.65;;
69894;SDS011;57172;52.034;5.090;2024-03-06T05:19:18;88.45;;;27.50;;
69894;SDS011;57172;52.034;5.090;2024-03-06T05:22:03;114.68;;;29.40;;
69894;SDS011;57172;52.034;5.090;2024-03-06T05:24:49;108.80;;;27.90;;
69894;SDS011;57172;52.034;5.090;2024-03-06T05:27:33;101.03;;;28.80;;
69894;SDS011;57172;52.034;5.090;2024-03-06T05:30:17;131.73;;;28.83;;
69894;SDS011;57172;52.034;5.090;2024-03-06T05:33:02;107.50;;;27.77;;
69894;SDS011;57172;52.034;5.090;2024-03-06T05:35:46;132.75;;;27.63;;
69894;SDS011;57172;52.034;5.090;2024-03-06T05:38:31;132.90;;;28.33;;
69894;SDS011;57172;52.034;5.090;2024-03-06T05:41:15;142.45;;;29.48;;
69894;SDS011;57172;52.034;5.090;2024-03-06T05:44:01;170.10;;;29.15;;
69894;SDS011;57172;52.034;5.090;2024-03-06T05:46:47;194.40;;;29.35;;
69894;SDS011;57172;52.034;5.090;2024-03-06T05:49:32;102.38;;;26.48;;
69894;SDS011;57172;52.034;5.090;2024-03-06T05:52:16;189.48;;;27.27;;
69894;SDS011;57172;52.034;5.090;2024-03-06T05:55:00;135.15;;;26.92;;
69894;SDS011;57172;52.034;5.090;2024-03-06T05:57:45;122.88;;;27.67;;
69894;SDS011;57172;52.034;5.090;2024-03-06T06:00:29;172.88;;;25.70;;
69894;SDS011;57172;52.034;5.090;2024-03-06T06:02:56;154.98;;;28.38;;
69894;SDS011;57172;52.034;5.090;2024-03-06T06:05:23;132.20;;;27.30;;
69894;SDS011;57172;52.034;5.090;2024-03-06T06:07:50;261.30;;;29.23;;
69894;SDS011;57172;52.034;5.090;2024-03-06T06:10:17;95.63;;;26.73;;
69894;SDS011;57172;52.034;5.090;2024-03-06T06:12:47;137.77;;;26.52;;
69894;SDS011;57172;52.034;5.090;2024-03-06T06:15:15;97.05;;;27.17;;
69894;SDS011;57172;52.034;5.090;2024-03-06T06:17:42;178.88;;;29.10;;
69894;SDS011;57172;52.034;5.090;2024-03-06T06:20:11;146.57;;;26.50;;
69894;SDS011;57172;52.034;5.090;2024-03-06T06:22:42;216.18;;;27.88;;
69894;SDS011;57172;52.034;5.090;2024-03-06T06:25:10;170.10;;;28.15;;
69894;SDS011;57172;52.034;5.090;2024-03-06T06:27:37;150.88;;;26.45;;
69894;SDS011;57172;52.034;5.090;2024-03-06T06:30:05;152.88;;;26.10;;
69894;SDS011;57172;52.034;5.090;2024-03-06T06:32:37;143.00;;;25.90;;
69894;SDS011;57172;52.034;5.090;2024-03-06T06:35:07;64.70;;;23.70;;
69894;SDS011;57172;52.034;5.090;2024-03-06T06:37:35;119.43;;;26.42;;
69894;SDS011;57172;52.034;5.090;2024-03-06T06:40:03;75.38;;;25.35;;
69894;SDS011;57172;52.034;5.090;2024-03-06T06:42:36;54.00;;;24.08;;
69894;SDS011;57172;52.034;5.090;2024-03-06T06:45:03;69.82;;;24.38;;
69894;SDS011;57172;52.034;5.090;2024-03-06T06:47:33;67.63;;;24.17;;
69894;SDS011;57172;52.034;5.090;2024-03-06T06:50:00;79.68;;;24.98;;
69894;SDS011;57172;52.034;5.090;2024-03-06T06:52:32;60.75;;;24.67;;
69894;SDS011;57172;52.034;5.090;2024-03-06T06:55:00;62.58;;;24.25;;
69894;SDS011;57172;52.034;5.090;2024-03-06T06:57:27;49.40;;;24.20;;
69894;SDS011;57172;52.034;5.090;2024-03-06T06:59:53;48.83;;;24.25;;
69894;SDS011;57172;52.034;5.090;2024-03-06T07:02:20;41.60;;;23.77;;
69894;SDS011;57172;52.034;5.090;2024-03-06T07:04:48;41.55;;;23.77;;
69894;SDS011;57172;52.034;5.090;2024-03-06T07:07:15;45.33;;;24.42;;
69894;SDS011;57172;52.034;5.090;2024-03-06T07:09:43;43.90;;;23.65;;
69894;SDS011;57172;52.034;5.090;2024-03-06T07:12:10;43.15;;;23.60;;
69894;SDS011;57172;52.034;5.090;2024-03-06T07:14:37;45.25;;;24.20;;
69894;SDS011;57172;52.034;5.090;2024-03-06T07:17:04;42.33;;;23.30;;
69894;SDS011;57172;52.034;5.090;2024-03-06T07:19:31;41.80;;;23.98;;
69894;SDS011;57172;52.034;5.090;2024-03-06T07:21:58;42.58;;;24.13;;
69894;SDS011;57172;52.034;5.090;2024-03-06T07:24:25;40.63;;;23.40;;
69894;SDS011;57172;52.034;5.090;2024-03-06T07:26:52;44.60;;;24.50;;
69894;SDS011;57172;52.034;5.090;2024-03-06T07:29:19;41.17;;;23.85;;
69894;SDS011;57172;52.034;5.090;2024-03-06T07:31:46;44.22;;;24.92;;
69894;SDS011;57172;52.034;5.090;2024-03-06T07:34:13;43.60;;;24.63;;
69894;SDS011;57172;52.034;5.090;2024-03-06T07:36:41;42.78;;;24.00;;
69894;SDS011;57172;52.034;5.090;2024-03-06T07:39:08;41.63;;;24.38;;
69894;SDS011;57172;52.034;5.090;2024-03-06T07:41:35;39.95;;;24.27;;
69894;SDS011;57172;52.034;5.090;2024-03-06T07:44:02;43.92;;;24.23;;
69894;SDS011;57172;52.034;5.090;2024-03-06T07:46:29;41.10;;;23.50;;
69894;SDS011;57172;52.034;5.090;2024-03-06T07:48:56;40.83;;;24.25;;
69894;SDS011;57172;52.034;5.090;2024-03-06T07:51:23;41.92;;;24.30;;
69894;SDS011;57172;52.034;5.090;2024-03-06T07:53:50;42.83;;;23.88;;
69894;SDS011;57172;52.034;5.090;2024-03-06T07:56:17;41.47;;;23.65;;
69894;SDS011;57172;52.034;5.090;2024-03-06T07:58:44;38.28;;;22.80;;
69894;SDS011;57172;52.034;5.090;2024-03-06T08:01:11;39.47;;;21.98;;
69894;SDS011;57172;52.034;5.090;2024-03-06T08:03:39;40.00;;;23.45;;
69894;SDS011;57172;52.034;5.090;2024-03-06T08:06:07;38.63;;;23.17;;
69894;SDS011;57172;52.034;5.090;2024-03-06T08:08:35;51.88;;;22.73;;
69894;SDS011;57172;52.034;5.090;2024-03-06T08:11:03;51.25;;;22.73;;
69894;SDS011;57172;52.034;5.090;2024-03-06T08:13:30;129.00;;;22.15;;
69894;SDS011;57172;52.034;5.090;2024-03-06T08:15:57;55.47;;;23.40;;
69894;SDS011;57172;52.034;5.090;2024-03-06T08:18:23;107.30;;;24.02;;
69894;SDS011;57172;52.034;5.090;2024-03-06T08:20:50;152.68;;;22.77;;
69894;SDS011;57172;52.034;5.090;2024-03-06T08:23:19;128.77;;;24.27;;
69894;SDS011;57172;52.034;5.090;2024-03-06T08:25:46;82.03;;;23.65;;
69894;SDS011;57172;52.034;5.090;2024-03-06T08:28:13;79.45;;;22.65;;
69894;SDS011;57172;52.034;5.090;2024-03-06T08:30:40;44.65;;;22.88;;
69894;SDS011;57172;52.034;5.090;2024-03-06T08:33:07;96.90;;;22.85;;
69894;SDS011;57172;52.034;5.090;2024-03-06T08:35:34;135.32;;;22.85;;
69894;SDS011;57172;52.034;5.090;2024-03-06T08:38:01;177.93;;;23.90;;
69894;SDS011;57172;52.034;5.090;2024-03-06T08:40:28;121.07;;;23.77;;
69894;SDS011;57172;52.034;5.090;2024-03-06T08:42:55;116.85;;;22.15;;
69894;SDS011;57172;52.034;5.090;2024-03-06T08:45:22;82.60;;;22.33;;
69894;SDS011;57172;52.034;5.090;2024-03-06T08:47:49;206.65;;;24.88;;
69894;SDS011;57172;52.034;5.090;2024-03-06T08:50:16;102.78;;;23.38;;
69894;SDS011;57172;52.034;5.090;2024-03-06T08:52:44;129.82;;;23.92;;
69894;SDS011;57172;52.034;5.090;2024-03-06T08:55:12;168.15;;;24.88;;
69894;SDS011;57172;52.034;5.090;2024-03-06T08:57:39;104.25;;;23.63;;
69894;SDS011;57172;52.034;5.090;2024-03-06T09:00:07;120.95;;;24.58;;
69894;SDS011;57172;52.034;5.090;2024-03-06T09:02:37;61.42;;;22.80;;
69894;SDS011;57172;52.034;5.090;2024-03-06T09:05:05;45.53;;;23.40;;
69894;SDS011;57172;52.034;5.090;2024-03-06T09:07:33;72.00;;;22.45;;
69894;SDS011;57172;52.034;5.090;2024-03-06T09:10:04;53.88;;;23.65;;
69894;SDS011;57172;52.034;5.090;2024-03-06T09:12:34;118.72;;;23.65;;
69894;SDS011;57172;52.034;5.090;2024-03-06T09:15:01;59.22;;;24.33;;
69894;SDS011;57172;52.034;5.090;2024-03-06T09:17:29;85.60;;;23.00;;
69894;SDS011;57172;52.034;5.090;2024-03-06T09:19:57;58.30;;;23.52;;
69894;SDS011;57172;52.034;5.090;2024-03-06T09:22:41;55.60;;;23.38;;
69894;SDS011;57172;52.034;5.090;2024-03-06T09:25:09;53.00;;;24.95;;
69894;SDS011;57172;52.034;5.090;2024-03-06T09:27:41;51.55;;;23.92;;
69894;SDS011;57172;52.034;5.090;2024-03-06T09:30:08;55.97;;;23.35;;
69894;SDS011;57172;52.034;5.090;2024-03-06T09:32:37;73.38;;;22.30;;
69894;SDS011;57172;52.034;5.090;2024-03-06T09:35:04;92.00;;;24.23;;
69894;SDS011;57172;52.034;5.090;2024-03-06T09:37:32;89.05;;;24.73;;
69894;SDS011;57172;52.034;5.090;2024-03-06T09:39:59;43.90;;;22.80;;
69894;SDS011;57172;52.034;5.090;2024-03-06T09:42:26;48.08;;;23.50;;
69894;SDS011;57172;52.034;5.090;2024-03-06T09:44:53;48.08;;;24.30;;
69894;SDS011;57172;52.034;5.090;2024-03-06T09:47:21;62.50;;;24.02;;
69894;SDS011;57172;52.034;5.090;2024-03-06T09:49:53;57.67;;;24.27;;
69894;SDS011;57172;52.034;5.090;2024-03-06T09:52:22;48.97;;;23.42;;
69894;SDS011;57172;52.034;5.090;2024-03-06T09:54:51;43.92;;;23.08;;
69894;SDS011;57172;52.034;5.090;2024-03-06T09:57:21;44.03;;;23.60;;
69894;SDS011;57172;52.034;5.090;2024-03-06T09:59:48;50.92;;;23.40;;
69894;SDS011;57172;52.034;5.090;2024-03-06T10:02:18;42.85;;;23.35;;
69894;SDS011;57172;52.034;5.090;2024-03-06T10:04:57;49.70;;;25.63;;
69894;SDS011;57172;52.034;5.090;2024-03-06T10:07:24;47.08;;;24.23;;
69894;SDS011;57172;52.034;5.090;2024-03-06T10:09:53;48.72;;;23.67;;
69894;SDS011;57172;52.034;5.090;2024-03-06T10:12:21;47.53;;;25.27;;
69894;SDS011;57172;52.034;5.090;2024-03-06T10:14:48;44.80;;;24.95;;
69894;SDS011;57172;52.034;5.090;2024-03-06T10:17:20;45.70;;;25.13;;
69894;SDS011;57172;52.034;5.090;2024-03-06T10:19:53;49.08;;;26.23;;
69894;SDS011;57172;52.034;5.090;2024-03-06T10:22:20;45.78;;;25.55;;
69894;SDS011;57172;52.034;5.090;2024-03-06T10:24:50;49.72;;;25.92;;
69894;SDS011;57172;52.034;5.090;2024-03-06T10:27:22;46.38;;;25.75;;
69894;SDS011;57172;52.034;5.090;2024-03-06T10:30:02;43.85;;;24.90;;
69894;SDS011;57172;52.034;5.090;2024-03-06T10:32:32;43.67;;;24.30;;
69894;SDS011;57172;52.034;5.090;2024-03-06T10:34:59;42.50;;;24.85;;
69894;SDS011;57172;52.034;5.090;2024-03-06T10:37:26;50.65;;;25.77;;
69894;SDS011;57172;52.034;5.090;2024-03-06T10:39:54;42.17;;;25.35;;
69894;SDS011;57172;52.034;5.090;2024-03-06T10:42:25;42.15;;;24.60;;
69894;SDS011;57172;52.034;5.090;2024-03-06T10:44:55;45.13;;;25.27;;
69894;SDS011;57172;52.034;5.090;2024-03-06T10:47:25;46.75;;;26.10;;
69894;SDS011;57172;52.034;5.090;2024-03-06T10:49:54;49.00;;;26.60;;
69894;SDS011;57172;52.034;5.090;2024-03-06T10:52:26;48.40;;;26.83;;
69894;SDS011;57172;52.034;5.090;2024-03-06T10:54:54;47.88;;;27.50;;
69894;SDS011;57172;52.034;5.090;2024-03-06T10:57:25;49.83;;;26.73;;
69894;SDS011;57172;52.034;5.090;2024-03-06T10:59:53;48.15;;;25.85;;
69894;SDS011;57172;52.034;5.090;2024-03-06T11:02:21;47.33;;;26.23;;
69894;SDS011;57172;52.034;5.090;2024-03-06T11:04:50;46.42;;;25.58;;
69894;SDS011;57172;52.034;5.090;2024-03-06T11:07:18;47.08;;;26.27;;
69894;SDS011;57172;52.034;5.090;2024-03-06T11:09:45;46.88;;;26.27;;
69894;SDS011;57172;52.034;5.090;2024-03-06T11:15:15;42.95;;;25.50;;
69894;SDS011;57172;52.034;5.090;2024-03-06T11:17:43;41.72;;;24.35;;
69894;SDS011;57172;52.034;5.090;2024-03-06T11:20:15;46.80;;;25.23;;
69894;SDS011;57172;52.034;5.090;2024-03-06T11:28:20;39.53;;;23.88;;
69894;SDS011;57172;52.034;5.090;2024-03-06T11:31:16;39.00;;;24.10;;
69894;SDS011;57172;52.034;5.090;2024-03-06T11:33:46;40.38;;;24.50;;
69894;SDS011;57172;52.034;5.090;2024-03-06T11:36:20;39.42;;;23.50;;
69894;SDS011;57172;52.034;5.090;2024-03-06T11:38:53;33.37;;;21.87;;
69894;SDS011;57172;52.034;5.090;2024-03-06T11:41:29;34.60;;;21.73;;
69894;SDS011;57172;52.034;5.090;2024-03-06T11:44:01;32.58;;;20.58;;
69894;SDS011;57172;52.034;5.090;2024-03-06T11:46:44;31.38;;;19.88;;
69894;SDS011;57172;52.034;5.090;2024-03-06T11:49:16;29.25;;;19.48;;
69894;SDS011;57172;52.034;5.090;2024-03-06T11:51:52;30.30;;;20.33;;
69894;SDS011;57172;52.034;5.090;2024-03-06T11:54:20;28.70;;;19.35;;
69894;SDS011;57172;52.034;5.090;2024-03-06T11:56:52;30.98;;;20.70;;
69894;SDS011;57172;52.034;5.090;2024-03-06T11:59:24;30.65;;;20.85;;
69894;SDS011;57172;52.034;5.090;2024-03-06T12:01:53;27.88;;;20.05;;
69894;SDS011;57172;52.034;5.090;2024-03-06T12:04:24;26.87;;;19.30;;
69894;SDS011;57172;52.034;5.090;2024-03-06T12:06:51;25.15;;;18.67;;
69894;SDS011;57172;52.034;5.090;2024-03-06T12:09:18;24.83;;;18.15;;
69894;SDS011;57172;52.034;5.090;2024-03-06T12:11:45;25.23;;;19.20;;
69894;SDS011;57172;52.034;5.090;2024-03-06T12:14:14;23.23;;;17.95;;
69894;SDS011;57172;52.034;5.090;2024-03-06T12:17:00;20.97;;;17.00;;
69894;SDS011;57172;52.034;5.090;2024-03-06T12:19:31;24.15;;;18.85;;
69894;SDS011;57172;52.034;5.090;2024-03-06T12:21:59;20.42;;;16.80;;
69894;SDS011;57172;52.034;5.090;2024-03-06T12:24:30;23.13;;;17.45;;
69894;SDS011;57172;52.034;5.090;2024-03-06T12:27:01;23.60;;;18.95;;
69894;SDS011;57172;52.034;5.090;2024-03-06T12:29:30;22.80;;;18.13;;
69894;SDS011;57172;52.034;5.090;2024-03-06T12:31:59;22.45;;;18.23;;
69894;SDS011;57172;52.034;5.090;2024-03-06T12:34:27;21.25;;;17.13;;
69894;SDS011;57172;52.034;5.090;2024-03-06T12:36:56;22.55;;;16.15;;
69894;SDS011;57172;52.034;5.090;2024-03-06T12:39:33;20.33;;;16.50;;
69894;SDS011;57172;52.034;5.090;2024-03-06T12:42:04;18.37;;;15.53;;
69894;SDS011;57172;52.034;5.090;2024-03-06T12:44:31;18.77;;;15.57;;
69894;SDS011;57172;52.034;5.090;2024-03-06T12:46:58;18.55;;;15.18;;
69894;SDS011;57172;52.034;5.090;2024-03-06T12:49:27;18.25;;;15.20;;
69894;SDS011;57172;52.034;5.090;2024-03-06T12:51:54;18.63;;;15.10;;
69894;SDS011;57172;52.034;5.090;2024-03-06T12:54:20;17.50;;;14.70;;
69894;SDS011;57172;52.034;5.090;2024-03-06T12:56:47;17.80;;;14.75;;
69894;SDS011;57172;52.034;5.090;2024-03-06T12:59:14;17.20;;;14.95;;
69894;SDS011;57172;52.034;5.090;2024-03-06T13:01:41;17.65;;;14.70;;
69894;SDS011;57172;52.034;5.090;2024-03-06T13:04:08;17.88;;;14.48;;
69894;SDS011;57172;52.034;5.090;2024-03-06T13:06:38;15.57;;;13.20;;
69894;SDS011;57172;52.034;5.090;2024-03-06T13:09:08;17.40;;;14.30;;
69894;SDS011;57172;52.034;5.090;2024-03-06T13:11:36;18.30;;;15.07;;
69894;SDS011;57172;52.034;5.090;2024-03-06T13:14:03;17.30;;;14.05;;
69894;SDS011;57172;52.034;5.090;2024-03-06T13:16:30;15.68;;;13.77;;
69894;SDS011;57172;52.034;5.090;2024-03-06T13:18:57;14.73;;;12.43;;
69894;SDS011;57172;52.034;5.090;2024-03-06T13:21:26;13.48;;;11.48;;
69894;SDS011;57172;52.034;5.090;2024-03-06T13:23:52;10.50;;;7.47;;
69894;SDS011;57172;52.034;5.090;2024-03-06T13:26:19;10.93;;;9.05;;
69894;SDS011;57172;52.034;5.090;2024-03-06T13:28:47;13.45;;;9.70;;
69894;SDS011;57172;52.034;5.090;2024-03-06T13:31:14;13.00;;;11.33;;
69894;SDS011;57172;52.034;5.090;2024-03-06T13:33:40;13.52;;;10.20;;
69894;SDS011;57172;52.034;5.090;2024-03-06T13:36:07;11.20;;;9.68;;
69894;SDS011;57172;52.034;5.090;2024-03-06T13:38:34;13.68;;;9.43;;
69894;SDS011;57172;52.034;5.090;2024-03-06T13:41:02;12.73;;;9.18;;
69894;SDS011;57172;52.034;5.090;2024-03-06T13:43:29;9.97;;;8.13;;
69894;SDS011;57172;52.034;5.090;2024-03-06T13:45:57;11.38;;;8.13;;
69894;SDS011;57172;52.034;5.090;2024-03-06T13:48:25;11.05;;;8.20;;
69894;SDS011;57172;52.034;5.090;2024-03-06T13:50:52;11.57;;;8.85;;
69894;SDS011;57172;52.034;5.090;2024-03-06T13:53:19;10.85;;;9.05;;
69894;SDS011;57172;52.034;5.090;2024-03-06T13:55:46;10.37;;;8.63;;
69894;SDS011;57172;52.034;5.090;2024-03-06T13:58:12;9.02;;;7.70;;
69894;SDS011;57172;52.034;5.090;2024-03-06T14:00:39;8.68;;;7.60;;
69894;SDS011;57172;52.034;5.090;2024-03-06T14:03:06;9.70;;;7.78;;
69894;SDS011;57172;52.034;5.090;2024-03-06T14:05:33;10.68;;;8.60;;
69894;SDS011;57172;52.034;5.090;2024-03-06T14:08:00;11.70;;;8.67;;
69894;SDS011;57172;52.034;5.090;2024-03-06T14:10:27;10.75;;;8.90;;
69894;SDS011;57172;52.034;5.090;2024-03-06T14:12:59;11.13;;;9.38;;
69894;SDS011;57172;52.034;5.090;2024-03-06T14:15:26;12.30;;;9.48;;
69894;SDS011;57172;52.034;5.090;2024-03-06T14:17:53;12.30;;;9.65;;
69894;SDS011;57172;52.034;5.090;2024-03-06T14:20:21;12.60;;;10.00;;
69894;SDS011;57172;52.034;5.090;2024-03-06T14:22:50;11.82;;;9.60;;
69894;SDS011;57172;52.034;5.090;2024-03-06T14:25:17;12.60;;;9.10;;
69894;SDS011;57172;52.034;5.090;2024-03-06T14:27:44;10.20;;;6.90;;
69894;SDS011;57172;52.034;5.090;2024-03-06T14:30:13;9.07;;;6.70;;
69894;SDS011;57172;52.034;5.090;2024-03-06T14:32:41;10.27;;;7.93;;
69894;SDS011;57172;52.034;5.090;2024-03-06T14:35:08;11.10;;;7.70;;
69894;SDS011;57172;52.034;5.090;2024-03-06T14:37:35;10.50;;;7.60;;
69894;SDS011;57172;52.034;5.090;2024-03-06T14:40:05;12.60;;;8.70;;